sensor_id;sensor_type;location;lat;lon;timestamp;pressure;altitude;pressure_sealevel;temperature;humidity
8061;BME280;4073;42.626;25.386;2023-12-28T00:01:33;98281.31;;;4.46;100.00
8061;BME280;4073;42.626;25.386;2023-12-28T00:03:58;98281.72;;;4.49;100.00
8061;BME280;4073;42.626;25.386;2023-12-28T00:06:24;98280.50;;;4.52;100.00
8061;BME280;4073;42.626;25.386;2023-12-28T00:08:49;98288.00;;;4.61;100.00
8061;BME280;4073;42.626;25.386;2023-12-28T00:11:15;98284.34;;;4.62;100.00
8061;BME280;4073;42.626;25.386;2023-12-28T00:13:41;98265.84;;;4.43;100.00
8061;BME280;4073;42.626;25.386;2023-12-28T00:16:07;98301.25;;;4.61;100.00
8061;BME280;4073;42.626;25.386;2023-12-28T00:18:32;98292.91;;;4.45;100.00
8061;BME280;4073;42.626;25.386;2023-12-28T00:20:58;98285.81;;;4.19;100.00
8061;BME280;4073;42.626;25.386;2023-12-28T00:23:23;98316.34;;;4.35;100.00
8061;BME280;4073;42.626;25.386;2023-12-28T00:25:49;98314.75;;;4.27;100.00
8061;BME280;4073;42.626;25.386;2023-12-28T00:28:14;98292.72;;;3.94;100.00
8061;BME280;4073;42.626;25.386;2023-12-28T00:30:40;98334.09;;;4.15;100.00
8061;BME280;4073;42.626;25.386;2023-12-28T00:33:05;98327.34;;;4.06;100.00
8061;BME280;4073;42.626;25.386;2023-12-28T00:35:31;98321.22;;;4.05;100.00
8061;BME280;4073;42.626;25.386;2023-12-28T00:37:56;98319.81;;;4.03;100.00
8061;BME280;4073;42.626;25.386;2023-12-28T00:40:22;98320.22;;;3.93;100.00
8061;BME280;4073;42.626;25.386;2023-12-28T00:42:48;98329.78;;;3.88;100.00
8061;BME280;4073;42.626;25.386;2023-12-28T00:45:13;98334.63;;;3.84;100.00
8061;BME280;4073;42.626;25.386;2023-12-28T00:47:39;98332.78;;;3.78;100.00
8061;BME280;4073;42.626;25.386;2023-12-28T00:50:05;98329.31;;;3.65;100.00
8061;BME280;4073;42.626;25.386;2023-12-28T00:52:31;98327.91;;;3.62;100.00
8061;BME280;4073;42.626;25.386;2023-12-28T00:54:56;98342.09;;;3.61;100.00
8061;BME280;4073;42.626;25.386;2023-12-28T00:57:22;98336.63;;;3.56;100.00
8061;BME280;4073;42.626;25.386;2023-12-28T00:59:47;98344.34;;;3.58;100.00
8061;BME280;4073;42.626;25.386;2023-12-28T01:02:13;98345.97;;;3.59;100.00
8061;BME280;4073;42.626;25.386;2023-12-28T01:04:38;98344.75;;;3.55;100.00
8061;BME280;4073;42.626;25.386;2023-12-28T01:07:04;98349.00;;;3.49;100.00
8061;BME280;4073;42.626;25.386;2023-12-28T01:09:31;98344.69;;;3.35;100.00
8061;BME280;4073;42.626;25.386;2023-12-28T01:11:58;98346.69;;;3.33;100.00
8061;BME280;4073;42.626;25.386;2023-12-28T01:14:23;98340.19;;;3.29;100.00
8061;BME280;4073;42.626;25.386;2023-12-28T01:16:49;98310.19;;;3.03;100.00
8061;BME280;4073;42.626;25.386;2023-12-28T01:19:15;98315.28;;;3.04;100.00
8061;BME280;4073;42.626;25.386;2023-12-28T01:21:40;98342.59;;;3.24;100.00
8061;BME280;4073;42.626;25.386;2023-12-28T01:24:06;98303.88;;;3.04;100.00
8061;BME280;4073;42.626;25.386;2023-12-28T01:26:31;98318.44;;;3.34;100.00
8061;BME280;4073;42.626;25.386;2023-12-28T01:28:57;98304.56;;;3.19;100.00
8061;BME280;4073;42.626;25.386;2023-12-28T01:31:22;98332.31;;;3.42;100.00
8061;BME280;4073;42.626;25.386;2023-12-28T01:33:48;98328.00;;;3.35;100.00
8061;BME280;4073;42.626;25.386;2023-12-28T01:36:19;98335.53;;;3.44;100.00
8061;BME280;4073;42.626;25.386;2023-12-28T01:38:45;98341.47;;;3.46;100.00
8061;BME280;4073;42.626;25.386;2023-12-28T01:41:11;98329.47;;;3.44;100.00
8061;BME280;4073;42.626;25.386;2023-12-28T01:43:38;98328.22;;;3.40;100.00
8061;BME280;4073;42.626;25.386;2023-12-28T01:46:05;98330.00;;;3.33;100.00
8061;BME280;4073;42.626;25.386;2023-12-28T01:48:32;98324.09;;;3.24;100.00
8061;BME280;4073;42.626;25.386;2023-12-28T01:50:58;98322.47;;;3.23;100.00
8061;BME280;4073;42.626;25.386;2023-12-28T01:53:24;98296.94;;;2.96;100.00
8061;BME280;4073;42.626;25.386;2023-12-28T01:55:50;98314.06;;;3.07;100.00
8061;BME280;4073;42.626;25.386;2023-12-28T01:58:16;98330.44;;;3.30;100.00
8061;BME280;4073;42.626;25.386;2023-12-28T02:00:43;98343.44;;;3.31;100.00
8061;BME280;4073;42.626;25.386;2023-12-28T02:03:10;98343.84;;;3.28;100.00
8061;BME280;4073;42.626;25.386;2023-12-28T02:05:36;98310.16;;;2.96;100.00
8061;BME280;4073;42.626;25.386;2023-12-28T02:08:03;98337.91;;;3.20;100.00
8061;BME280;4073;42.626;25.386;2023-12-28T02:10:29;98340.94;;;3.17;100.00
8061;BME280;4073;42.626;25.386;2023-12-28T02:12:55;98337.28;;;3.18;100.00
8061;BME280;4073;42.626;25.386;2023-12-28T02:15:21;98311.63;;;3.05;100.00
8061;BME280;4073;42.626;25.386;2023-12-28T02:18:00;98337.94;;;3.33;100.00
8061;BME280;4073;42.626;25.386;2023-12-28T02:20:29;98336.94;;;3.34;100.00
8061;BME280;4073;42.626;25.386;2023-12-28T02:22:55;98332.84;;;3.31;100.00
8061;BME280;4073;42.626;25.386;2023-12-28T02:25:21;98338.19;;;3.38;100.00
8061;BME280;4073;42.626;25.386;2023-12-28T02:27:48;98339.81;;;3.39;100.00
8061;BME280;4073;42.626;25.386;2023-12-28T02:30:22;98333.50;;;3.40;100.00
8061;BME280;4073;42.626;25.386;2023-12-28T02:35:34;98346.31;;;3.43;100.00
8061;BME280;4073;42.626;25.386;2023-12-28T02:38:08;98346.72;;;3.40;100.00
8061;BME280;4073;42.626;25.386;2023-12-28T02:40:37;98340.56;;;3.26;100.00
8061;BME280;4073;42.626;25.386;2023-12-28T02:43:05;98331.22;;;3.30;100.00
8061;BME280;4073;42.626;25.386;2023-12-28T02:45:30;98351.59;;;3.30;100.00
8061;BME280;4073;42.626;25.386;2023-12-28T02:47:56;98349.72;;;3.30;100.00
8061;BME280;4073;42.626;25.386;2023-12-28T02:50:21;98322.19;;;3.05;100.00
8061;BME280;4073;42.626;25.386;2023-12-28T02:52:47;98343.22;;;3.26;100.00
8061;BME280;4073;42.626;25.386;2023-12-28T02:55:12;98338.69;;;3.14;100.00
8061;BME280;4073;42.626;25.386;2023-12-28T02:57:38;98344.53;;;3.03;100.00
8061;BME280;4073;42.626;25.386;2023-12-28T03:00:07;98338.16;;;2.91;100.00
8061;BME280;4073;42.626;25.386;2023-12-28T03:02:38;98345.22;;;2.84;100.00
8061;BME280;4073;42.626;25.386;2023-12-28T03:05:05;98344.78;;;2.80;100.00
8061;BME280;4073;42.626;25.386;2023-12-28T03:07:31;98338.34;;;2.83;100.00
8061;BME280;4073;42.626;25.386;2023-12-28T03:09:57;98340.16;;;2.89;100.00
8061;BME280;4073;42.626;25.386;2023-12-28T03:12:23;98332.88;;;2.91;100.00
8061;BME280;4073;42.626;25.386;2023-12-28T03:14:48;98338.41;;;2.96;100.00
8061;BME280;4073;42.626;25.386;2023-12-28T03:17:14;98308.44;;;2.76;100.00
8061;BME280;4073;42.626;25.386;2023-12-28T03:19:39;98335.97;;;3.01;100.00
8061;BME280;4073;42.626;25.386;2023-12-28T03:22:05;98332.31;;;2.95;100.00
8061;BME280;4073;42.626;25.386;2023-12-28T03:24:30;98332.88;;;2.91;100.00
8061;BME280;4073;42.626;25.386;2023-12-28T03:26:56;98335.44;;;2.78;100.00
8061;BME280;4073;42.626;25.386;2023-12-28T03:29:21;98337.47;;;2.76;100.00
8061;BME280;4073;42.626;25.386;2023-12-28T03:31:47;98294.59;;;2.39;100.00
8061;BME280;4073;42.626;25.386;2023-12-28T03:34:13;98337.13;;;2.57;100.00
8061;BME280;4073;42.626;25.386;2023-12-28T03:36:39;98336.72;;;2.54;100.00
8061;BME280;4073;42.626;25.386;2023-12-28T03:39:05;98310.31;;;2.26;100.00
8061;BME280;4073;42.626;25.386;2023-12-28T03:41:31;98331.19;;;2.49;100.00
8061;BME280;4073;42.626;25.386;2023-12-28T03:43:56;98333.25;;;2.53;100.00
8061;BME280;4073;42.626;25.386;2023-12-28T03:46:22;98334.38;;;2.65;100.00
8061;BME280;4073;42.626;25.386;2023-12-28T03:48:47;98340.13;;;2.76;100.00
8061;BME280;4073;42.626;25.386;2023-12-28T03:51:14;98333.63;;;2.78;100.00
8061;BME280;4073;42.626;25.386;2023-12-28T03:53:41;98334.47;;;2.85;100.00
8061;BME280;4073;42.626;25.386;2023-12-28T03:56:06;98340.81;;;2.91;100.00
8061;BME280;4073;42.626;25.386;2023-12-28T03:58:32;98331.84;;;2.92;100.00
8061;BME280;4073;42.626;25.386;2023-12-28T04:00:58;98345.69;;;2.94;100.00
8061;BME280;4073;42.626;25.386;2023-12-28T04:03:23;98348.75;;;2.97;100.00
8061;BME280;4073;42.626;25.386;2023-12-28T04:05:50;98305.31;;;2.65;100.00
8061;BME280;4073;42.626;25.386;2023-12-28T04:08:16;98336.50;;;2.83;100.00
8061;BME280;4073;42.626;25.386;2023-12-28T04:10:41;98319.88;;;2.55;100.00
8061;BME280;4073;42.626;25.386;2023-12-28T04:13:07;98335.41;;;2.71;100.00
8061;BME280;4073;42.626;25.386;2023-12-28T04:15:32;98335.63;;;2.76;100.00
8061;BME280;4073;42.626;25.386;2023-12-28T04:17:58;98336.66;;;2.75;100.00
8061;BME280;4073;42.626;25.386;2023-12-28T04:20:23;98336.41;;;2.70;100.00
8061;BME280;4073;42.626;25.386;2023-12-28T04:22:49;98352.69;;;2.73;100.00
8061;BME280;4073;42.626;25.386;2023-12-28T04:25:14;98311.91;;;2.48;100.00
8061;BME280;4073;42.626;25.386;2023-12-28T04:27:41;98310.06;;;2.49;100.00
8061;BME280;4073;42.626;25.386;2023-12-28T04:30:11;98347.38;;;2.67;100.00
8061;BME280;4073;42.626;25.386;2023-12-28T04:32:36;98344.84;;;2.52;100.00
8061;BME280;4073;42.626;25.386;2023-12-28T04:35:02;98347.41;;;2.46;100.00
8061;BME280;4073;42.626;25.386;2023-12-28T04:37:29;98342.47;;;2.36;100.00
8061;BME280;4073;42.626;25.386;2023-12-28T04:39:56;98348.31;;;2.32;100.00
8061;BME280;4073;42.626;25.386;2023-12-28T04:42:22;98339.78;;;2.30;100.00
8061;BME280;4073;42.626;25.386;2023-12-28T04:44:47;98311.41;;;2.11;100.00
8061;BME280;4073;42.626;25.386;2023-12-28T04:47:13;98344.88;;;2.31;100.00
8061;BME280;4073;42.626;25.386;2023-12-28T04:49:38;98314.06;;;2.11;100.00
8061;BME280;4073;42.626;25.386;2023-12-28T04:52:04;98317.34;;;2.13;100.00
8061;BME280;4073;42.626;25.386;2023-12-28T04:54:29;98343.41;;;2.29;100.00
8061;BME280;4073;42.626;25.386;2023-12-28T04:56:55;98348.69;;;2.29;100.00
8061;BME280;4073;42.626;25.386;2023-12-28T04:59:21;98351.34;;;2.29;100.00
8061;BME280;4073;42.626;25.386;2023-12-28T05:01:46;98347.53;;;2.31;100.00
8061;BME280;4073;42.626;25.386;2023-12-28T05:04:12;98350.78;;;2.33;100.00
8061;BME280;4073;42.626;25.386;2023-12-28T05:06:37;98346.31;;;2.34;100.00
8061;BME280;4073;42.626;25.386;2023-12-28T05:09:03;98356.63;;;2.29;100.00
8061;BME280;4073;42.626;25.386;2023-12-28T05:11:30;98332.16;;;1.93;100.00
8061;BME280;4073;42.626;25.386;2023-12-28T05:13:55;98326.25;;;1.91;100.00
8061;BME280;4073;42.626;25.386;2023-12-28T05:16:21;98360.63;;;1.97;100.00
8061;BME280;4073;42.626;25.386;2023-12-28T05:18:47;98331.38;;;1.57;100.00
8061;BME280;4073;42.626;25.386;2023-12-28T05:21:13;98327.53;;;1.38;100.00
8061;BME280;4073;42.626;25.386;2023-12-28T05:23:39;98357.84;;;1.63;100.00
8061;BME280;4073;42.626;25.386;2023-12-28T05:26:04;98360.91;;;1.67;100.00
8061;BME280;4073;42.626;25.386;2023-12-28T05:28:31;98359.34;;;1.72;100.00
8061;BME280;4073;42.626;25.386;2023-12-28T05:30:57;98366.13;;;1.81;100.00
8061;BME280;4073;42.626;25.386;2023-12-28T05:33:26;98356.00;;;1.85;100.00
8061;BME280;4073;42.626;25.386;2023-12-28T05:35:51;98355.91;;;1.93;100.00
8061;BME280;4073;42.626;25.386;2023-12-28T05:38:17;98355.94;;;1.99;100.00
8061;BME280;4073;42.626;25.386;2023-12-28T05:40:43;98343.78;;;1.98;100.00
8061;BME280;4073;42.626;25.386;2023-12-28T05:43:10;98351.50;;;2.00;100.00
8061;BME280;4073;42.626;25.386;2023-12-28T05:45:36;98348.31;;;2.04;100.00
8061;BME280;4073;42.626;25.386;2023-12-28T05:48:02;98352.00;;;2.10;100.00
8061;BME280;4073;42.626;25.386;2023-12-28T05:50:27;98352.25;;;2.15;100.00
8061;BME280;4073;42.626;25.386;2023-12-28T05:52:53;98302.28;;;1.86;100.00
8061;BME280;4073;42.626;25.386;2023-12-28T05:55:18;98312.88;;;1.92;100.00
8061;BME280;4073;42.626;25.386;2023-12-28T05:57:44;98363.25;;;2.18;100.00
8061;BME280;4073;42.626;25.386;2023-12-28T06:00:10;98358.28;;;2.30;100.00
8061;BME280;4073;42.626;25.386;2023-12-28T06:02:36;98358.50;;;2.35;100.00
8061;BME280;4073;42.626;25.386;2023-12-28T06:05:01;98359.16;;;2.43;100.00
8061;BME280;4073;42.626;25.386;2023-12-28T06:07:27;98309.91;;;2.23;100.00
8061;BME280;4073;42.626;25.386;2023-12-28T06:09:52;98360.09;;;2.57;100.00
8061;BME280;4073;42.626;25.386;2023-12-28T06:12:18;98357.84;;;2.54;100.00
8061;BME280;4073;42.626;25.386;2023-12-28T06:14:43;98353.41;;;2.61;100.00
8061;BME280;4073;42.626;25.386;2023-12-28T06:17:09;98355.50;;;2.65;100.00
8061;BME280;4073;42.626;25.386;2023-12-28T06:19:34;98372.00;;;2.74;100.00
8061;BME280;4073;42.626;25.386;2023-12-28T06:22:00;98362.03;;;2.76;100.00
8061;BME280;4073;42.626;25.386;2023-12-28T06:24:26;98359.47;;;2.83;100.00
8061;BME280;4073;42.626;25.386;2023-12-28T06:26:51;98374.56;;;3.36;100.00
8061;BME280;4073;42.626;25.386;2023-12-28T06:29:17;98370.84;;;5.14;100.00
8061;BME280;4073;42.626;25.386;2023-12-28T06:31:42;98377.16;;;6.88;90.37
8061;BME280;4073;42.626;25.386;2023-12-28T06:34:08;98376.66;;;8.58;77.99
8061;BME280;4073;42.626;25.386;2023-12-28T06:36:34;98385.31;;;10.25;65.13
8061;BME280;4073;42.626;25.386;2023-12-28T06:38:59;98377.22;;;11.57;57.44
8061;BME280;4073;42.626;25.386;2023-12-28T06:41:25;98345.28;;;12.83;49.81
8061;BME280;4073;42.626;25.386;2023-12-28T06:43:51;98354.78;;;13.38;46.97
8061;BME280;4073;42.626;25.386;2023-12-28T06:46:17;98343.06;;;14.25;43.78
8061;BME280;4073;42.626;25.386;2023-12-28T06:48:43;98348.13;;;15.47;40.40
8061;BME280;4073;42.626;25.386;2023-12-28T06:51:09;98376.84;;;16.30;38.79
8061;BME280;4073;42.626;25.386;2023-12-28T06:53:35;98383.84;;;15.78;38.76
8061;BME280;4073;42.626;25.386;2023-12-28T06:56:01;98355.47;;;16.39;38.27
8061;BME280;4073;42.626;25.386;2023-12-28T06:58:26;98378.97;;;16.43;37.27
8061;BME280;4073;42.626;25.386;2023-12-28T07:00:52;98381.41;;;16.78;36.79
8061;BME280;4073;42.626;25.386;2023-12-28T07:03:17;98382.44;;;17.16;36.36
8061;BME280;4073;42.626;25.386;2023-12-28T07:05:43;98381.38;;;17.45;35.28
8061;BME280;4073;42.626;25.386;2023-12-28T07:08:08;98387.53;;;17.74;35.21
8061;BME280;4073;42.626;25.386;2023-12-28T07:10:34;98387.75;;;18.02;34.35
8061;BME280;4073;42.626;25.386;2023-12-28T07:13:01;98377.44;;;18.46;34.15
8061;BME280;4073;42.626;25.386;2023-12-28T07:15:26;98392.72;;;18.37;33.45
8061;BME280;4073;42.626;25.386;2023-12-28T07:17:52;98383.31;;;18.29;33.64
8061;BME280;4073;42.626;25.386;2023-12-28T07:20:17;98387.69;;;18.07;34.06
8061;BME280;4073;42.626;25.386;2023-12-28T07:22:43;98394.03;;;17.97;34.34
8061;BME280;4073;42.626;25.386;2023-12-28T07:25:08;98389.66;;;18.43;33.95
8061;BME280;4073;42.626;25.386;2023-12-28T07:27:34;98393.16;;;18.02;34.03
8061;BME280;4073;42.626;25.386;2023-12-28T07:30:00;98385.91;;;18.39;33.88
8061;BME280;4073;42.626;25.386;2023-12-28T07:32:26;98382.28;;;18.99;33.39
8061;BME280;4073;42.626;25.386;2023-12-28T07:34:53;98380.34;;;19.91;31.73
8061;BME280;4073;42.626;25.386;2023-12-28T07:37:19;98374.69;;;20.01;31.70
8061;BME280;4073;42.626;25.386;2023-12-28T07:39:45;98373.06;;;20.41;30.84
8061;BME280;4073;42.626;25.386;2023-12-28T07:42:10;98374.81;;;20.59;30.21
8061;BME280;4073;42.626;25.386;2023-12-28T07:44:36;98380.16;;;20.50;30.04
8061;BME280;4073;42.626;25.386;2023-12-28T07:47:01;98382.50;;;21.01;29.39
8061;BME280;4073;42.626;25.386;2023-12-28T07:49:28;98388.75;;;21.01;29.38
8061;BME280;4073;42.626;25.386;2023-12-28T07:51:54;98355.16;;;20.97;29.11
8061;BME280;4073;42.626;25.386;2023-12-28T07:54:19;98381.06;;;20.81;29.67
8061;BME280;4073;42.626;25.386;2023-12-28T07:56:45;98382.63;;;21.18;29.21
8061;BME280;4073;42.626;25.386;2023-12-28T07:59:11;98391.16;;;22.33;27.52
8061;BME280;4073;42.626;25.386;2023-12-28T08:01:36;98393.50;;;22.09;27.67
8061;BME280;4073;42.626;25.386;2023-12-28T08:04:02;98390.47;;;22.11;28.00
8061;BME280;4073;42.626;25.386;2023-12-28T08:06:28;98390.97;;;22.38;27.66
8061;BME280;4073;42.626;25.386;2023-12-28T08:08:56;98401.31;;;22.75;27.12
8061;BME280;4073;42.626;25.386;2023-12-28T08:11:21;98394.69;;;22.34;27.46
8061;BME280;4073;42.626;25.386;2023-12-28T08:13:47;98396.97;;;23.09;26.39
8061;BME280;4073;42.626;25.386;2023-12-28T08:16:12;98389.94;;;22.73;27.11
8061;BME280;4073;42.626;25.386;2023-12-28T08:18:38;98400.03;;;22.73;26.91
8061;BME280;4073;42.626;25.386;2023-12-28T08:21:03;98400.25;;;24.11;25.44
8061;BME280;4073;42.626;25.386;2023-12-28T08:23:29;98387.56;;;24.07;25.33
8061;BME280;4073;42.626;25.386;2023-12-28T08:25:54;98393.53;;;23.54;26.25
8061;BME280;4073;42.626;25.386;2023-12-28T08:28:20;98396.16;;;24.26;25.35
8061;BME280;4073;42.626;25.386;2023-12-28T08:30:46;98387.41;;;24.32;25.15
8061;BME280;4073;42.626;25.386;2023-12-28T08:33:11;98383.09;;;23.56;25.85
8061;BME280;4073;42.626;25.386;2023-12-28T08:35:37;98398.19;;;24.29;25.31
8061;BME280;4073;42.626;25.386;2023-12-28T08:38:02;98388.22;;;24.33;24.88
8061;BME280;4073;42.626;25.386;2023-12-28T08:40:28;98373.16;;;24.47;24.84
8061;BME280;4073;42.626;25.386;2023-12-28T08:42:53;98374.19;;;24.14;25.26
8061;BME280;4073;42.626;25.386;2023-12-28T08:45:19;98372.47;;;24.79;24.60
8061;BME280;4073;42.626;25.386;2023-12-28T08:47:44;98370.09;;;24.90;24.36
8061;BME280;4073;42.626;25.386;2023-12-28T08:50:10;98364.41;;;24.33;24.81
8061;BME280;4073;42.626;25.386;2023-12-28T08:52:35;98368.22;;;24.41;24.86
8061;BME280;4073;42.626;25.386;2023-12-28T08:55:01;98358.50;;;23.65;25.68
8061;BME280;4073;42.626;25.386;2023-12-28T08:57:27;98358.38;;;23.90;25.51
8061;BME280;4073;42.626;25.386;2023-12-28T08:59:53;98345.84;;;24.68;24.50
8061;BME280;4073;42.626;25.386;2023-12-28T09:02:19;98348.78;;;24.83;24.31
8061;BME280;4073;42.626;25.386;2023-12-28T09:04:44;98352.00;;;25.75;23.37
8061;BME280;4073;42.626;25.386;2023-12-28T09:07:10;98336.41;;;25.99;22.96
8061;BME280;4073;42.626;25.386;2023-12-28T09:09:35;98316.50;;;26.14;22.88
8061;BME280;4073;42.626;25.386;2023-12-28T09:12:01;98336.94;;;25.81;23.07
8061;BME280;4073;42.626;25.386;2023-12-28T09:14:27;98335.88;;;25.61;22.90
8061;BME280;4073;42.626;25.386;2023-12-28T09:16:52;98327.00;;;25.64;23.28
8061;BME280;4073;42.626;25.386;2023-12-28T09:19:18;98309.44;;;25.89;22.68
8061;BME280;4073;42.626;25.386;2023-12-28T09:21:43;98319.66;;;26.28;22.64
8061;BME280;4073;42.626;25.386;2023-12-28T09:24:09;98320.94;;;25.95;22.67
8061;BME280;4073;42.626;25.386;2023-12-28T09:26:34;98312.22;;;26.41;22.21
8061;BME280;4073;42.626;25.386;2023-12-28T09:29:00;98316.31;;;26.86;21.88
8061;BME280;4073;42.626;25.386;2023-12-28T09:31:26;98308.16;;;26.74;21.94
8061;BME280;4073;42.626;25.386;2023-12-28T09:33:51;98309.75;;;26.75;21.75
8061;BME280;4073;42.626;25.386;2023-12-28T09:36:17;98304.34;;;26.39;22.47
8061;BME280;4073;42.626;25.386;2023-12-28T09:38:43;98298.66;;;27.42;21.58
8061;BME280;4073;42.626;25.386;2023-12-28T09:41:13;98287.22;;;27.87;21.03
8061;BME280;4073;42.626;25.386;2023-12-28T09:44:03;98284.38;;;27.37;21.12
8061;BME280;4073;42.626;25.386;2023-12-28T09:46:30;98275.34;;;27.52;21.28
8061;BME280;4073;42.626;25.386;2023-12-28T09:48:58;98262.31;;;28.15;20.78
8061;BME280;4073;42.626;25.386;2023-12-28T09:51:24;98280.00;;;27.83;21.11
8061;BME280;4073;42.626;25.386;2023-12-28T09:53:50;98279.22;;;27.20;21.80
8061;BME280;4073;42.626;25.386;2023-12-28T09:56:16;98270.78;;;26.70;21.67
8061;BME280;4073;42.626;25.386;2023-12-28T09:58:46;98242.09;;;25.76;22.47
8061;BME280;4073;42.626;25.386;2023-12-28T10:01:14;98262.94;;;25.93;22.92
8061;BME280;4073;42.626;25.386;2023-12-28T10:03:40;98256.88;;;25.27;23.28
8061;BME280;4073;42.626;25.386;2023-12-28T10:06:05;98253.41;;;24.20;24.59
8061;BME280;4073;42.626;25.386;2023-12-28T10:08:31;98243.88;;;23.56;25.41
8061;BME280;4073;42.626;25.386;2023-12-28T10:10:56;98252.53;;;23.21;25.80
8061;BME280;4073;42.626;25.386;2023-12-28T10:13:25;98239.94;;;22.91;26.00
8061;BME280;4073;42.626;25.386;2023-12-28T10:15:50;98244.47;;;22.61;26.46
8061;BME280;4073;42.626;25.386;2023-12-28T10:18:19;98226.09;;;22.24;27.32
8061;BME280;4073;42.626;25.386;2023-12-28T10:20:53;98228.00;;;22.06;27.41
8061;BME280;4073;42.626;25.386;2023-12-28T10:23:21;98235.66;;;21.87;27.92
8061;BME280;4073;42.626;25.386;2023-12-28T10:25:47;98230.72;;;21.98;27.87
8061;BME280;4073;42.626;25.386;2023-12-28T10:28:15;98217.22;;;21.76;27.88
8061;BME280;4073;42.626;25.386;2023-12-28T10:30:44;98209.84;;;21.68;27.95
8061;BME280;4073;42.626;25.386;2023-12-28T10:33:09;98178.94;;;21.55;27.75
8061;BME280;4073;42.626;25.386;2023-12-28T10:35:35;98193.41;;;21.81;27.61
8061;BME280;4073;42.626;25.386;2023-12-28T10:38:01;98166.97;;;21.82;27.83
8061;BME280;4073;42.626;25.386;2023-12-28T10:40:29;98177.38;;;22.31;27.69
8061;BME280;4073;42.626;25.386;2023-12-28T10:42:58;98182.50;;;22.49;27.33
8061;BME280;4073;42.626;25.386;2023-12-28T10:45:31;98139.66;;;22.58;26.70
8061;BME280;4073;42.626;25.386;2023-12-28T10:50:49;98175.53;;;23.07;26.48
8061;BME280;4073;42.626;25.386;2023-12-28T10:53:49;98167.06;;;23.00;26.57
8061;BME280;4073;42.626;25.386;2023-12-28T10:56:36;98167.31;;;22.86;27.09
8061;BME280;4073;42.626;25.386;2023-12-28T10:59:14;98159.09;;;22.95;27.10
8061;BME280;4073;42.626;25.386;2023-12-28T11:01:43;98152.41;;;22.84;26.97
8061;BME280;4073;42.626;25.386;2023-12-28T11:06:41;98146.22;;;22.57;27.62
8061;BME280;4073;42.626;25.386;2023-12-28T11:09:09;98138.81;;;22.75;27.49
8061;BME280;4073;42.626;25.386;2023-12-28T11:11:36;98134.47;;;22.74;27.51
8061;BME280;4073;42.626;25.386;2023-12-28T11:14:03;98133.81;;;23.15;27.16
8061;BME280;4073;42.626;25.386;2023-12-28T11:16:30;98122.59;;;23.08;27.23
8061;BME280;4073;42.626;25.386;2023-12-28T11:18:58;98116.34;;;22.78;27.75
8061;BME280;4073;42.626;25.386;2023-12-28T11:21:25;98122.53;;;22.87;27.71
8061;BME280;4073;42.626;25.386;2023-12-28T11:23:51;98114.75;;;23.06;27.51
8061;BME280;4073;42.626;25.386;2023-12-28T11:26:20;98085.03;;;22.84;27.78
8061;BME280;4073;42.626;25.386;2023-12-28T11:28:47;98088.84;;;22.92;27.46
8061;BME280;4073;42.626;25.386;2023-12-28T11:31:17;98101.09;;;23.35;26.99
8061;BME280;4073;42.626;25.386;2023-12-28T11:33:51;98102.31;;;23.26;27.13
8061;BME280;4073;42.626;25.386;2023-12-28T11:36:35;98090.91;;;23.24;27.15
8061;BME280;4073;42.626;25.386;2023-12-28T11:39:03;98101.78;;;23.03;27.48
8061;BME280;4073;42.626;25.386;2023-12-28T11:41:34;98089.75;;;23.33;26.99
8061;BME280;4073;42.626;25.386;2023-12-28T11:44:04;98082.94;;;23.39;26.68
8061;BME280;4073;42.626;25.386;2023-12-28T11:46:35;98083.81;;;23.31;27.07
8061;BME280;4073;42.626;25.386;2023-12-28T11:51:35;98070.44;;;22.80;27.42
8061;BME280;4073;42.626;25.386;2023-12-28T11:54:02;98085.22;;;22.79;27.79
8061;BME280;4073;42.626;25.386;2023-12-28T11:56:29;98080.81;;;22.57;27.83
8061;BME280;4073;42.626;25.386;2023-12-28T11:58:54;98080.03;;;22.40;27.95
8061;BME280;4073;42.626;25.386;2023-12-28T12:01:20;98080.41;;;22.30;28.29
8061;BME280;4073;42.626;25.386;2023-12-28T12:03:45;98083.34;;;22.08;28.70
8061;BME280;4073;42.626;25.386;2023-12-28T12:06:11;98060.47;;;21.66;28.86
8061;BME280;4073;42.626;25.386;2023-12-28T12:08:37;98076.47;;;21.59;29.20
8061;BME280;4073;42.626;25.386;2023-12-28T12:11:04;98067.50;;;21.25;29.34
8061;BME280;4073;42.626;25.386;2023-12-28T12:13:31;98074.97;;;20.94;29.70
8061;BME280;4073;42.626;25.386;2023-12-28T12:15:57;98085.91;;;20.72;30.10
8061;BME280;4073;42.626;25.386;2023-12-28T12:18:23;98077.50;;;20.51;30.63
8061;BME280;4073;42.626;25.386;2023-12-28T12:20:50;98070.56;;;20.36;30.96
8061;BME280;4073;42.626;25.386;2023-12-28T12:23:15;98071.19;;;20.25;29.79
8061;BME280;4073;42.626;25.386;2023-12-28T12:25:41;98059.81;;;20.23;29.81
8061;BME280;4073;42.626;25.386;2023-12-28T12:28:07;98065.19;;;20.14;29.90
8061;BME280;4073;42.626;25.386;2023-12-28T12:30:34;98061.19;;;20.12;29.95
8061;BME280;4073;42.626;25.386;2023-12-28T12:33:00;98059.13;;;19.95;30.66
8061;BME280;4073;42.626;25.386;2023-12-28T12:35:25;98059.19;;;20.04;30.63
8061;BME280;4073;42.626;25.386;2023-12-28T12:37:51;98026.78;;;19.77;30.77
8061;BME280;4073;42.626;25.386;2023-12-28T12:40:18;98051.25;;;19.85;30.67
8061;BME280;4073;42.626;25.386;2023-12-28T12:42:55;98057.19;;;19.87;30.91
8061;BME280;4073;42.626;25.386;2023-12-28T12:45:22;98047.44;;;19.86;30.85
8061;BME280;4073;42.626;25.386;2023-12-28T12:47:47;98019.13;;;19.57;30.83
8061;BME280;4073;42.626;25.386;2023-12-28T12:50:13;98045.72;;;19.68;30.48
8061;BME280;4073;42.626;25.386;2023-12-28T12:52:41;98047.22;;;19.52;30.78
8061;BME280;4073;42.626;25.386;2023-12-28T12:55:13;98039.72;;;19.36;31.23
8061;BME280;4073;42.626;25.386;2023-12-28T12:57:40;98039.25;;;19.20;31.15
8061;BME280;4073;42.626;25.386;2023-12-28T13:00:06;98035.31;;;18.91;31.94
8061;BME280;4073;42.626;25.386;2023-12-28T13:02:35;97994.84;;;18.59;32.32
8061;BME280;4073;42.626;25.386;2023-12-28T13:05:02;98021.19;;;18.53;32.57
8061;BME280;4073;42.626;25.386;2023-12-28T13:07:29;98020.47;;;18.34;32.73
8061;BME280;4073;42.626;25.386;2023-12-28T13:09:55;97995.63;;;18.19;32.63
8061;BME280;4073;42.626;25.386;2023-12-28T13:12:20;98013.34;;;18.11;33.44
8061;BME280;4073;42.626;25.386;2023-12-28T13:14:46;98021.28;;;18.21;33.54
8061;BME280;4073;42.626;25.386;2023-12-28T13:17:12;98019.09;;;18.23;33.43